Fieldale, VA (24089)

7:44 PM EST on February 12, 2016 (GMT -0500)
Horsepasture | | Change Station
CLOSE
Current Station
Personal Weather Station
Location: Martinsville, VA
Elevation: 1037 ft
Nearby Weather Stations

Elev 1037 ft 36.65 °N, 79.93 °W | Updated 0 second ago

Overcast
Overcast
32.1 °F
Feels Like 24 °F
N
10.4
Wind Variable Wind from West
Gusts 10.4 mph

Today
High -- | Low -- °F
--% Chance of Precip.
Yesterday
High -- | Low -- °F
Precip. -- in
Pressure 30.02 in
Visibility 10.0 miles
Clouds Mostly Cloudy 4000 ft
Overcast 4800 ft
Windchill 24 °F
Dew Point 18 °F
Humidity 56%
Rainfall 0.04 in
Snow Depth Not available.
7:11 AM 5:56 PM
Waxing Crescent, 25% visible
METAR KMTV 130035Z AUTO 23003KT 10SM BKN040 OVC048 00/M10 A3002 RMK AO2 T10051105
Pressure 30.02 in
Visibility 10.0 miles
Clouds Mostly Cloudy 4000 ft
Overcast 4800 ft
Windchill 24 °F
Dew Point 18 °F
Humidity 56%
Rainfall 0.04 in
Snow Depth Not available.
7:11 AM 5:56 PM
Waxing Crescent, 25% visible
METAR KMTV 130035Z AUTO 23003KT 10SM BKN040 OVC048 00/M10 A3002 RMK AO2 T10051105

10-Day Weather Forecast

Almanac

Astronomy

Feb. 12, 2016 Rise Set
Actual Time
Civil Twilight
Nautical Twilight
Astronomical Twilight
Moon
Length of Visible Light
Length of Day
Tomorrow will be .
, % of the Moon is Illuminated

Today's Extremes

State Highs State Lows

Community

WunderPhotos

Upload Photos

1,892,444 photos uploaded!

WunderBlog® & News

Nearby

Air Quality

  Air Quality AQ Index Pollutant
Not available.

Snow Depth

Station Depth Elevation

Earthquake Activity

City Distance Mag. Time & Date
Minimum magnitude displayed is 2.5.

Coastal Water Temperatures

Place Temperature

Stations

Nearby Weather Stations

Station Location Temp. Windchill Dew Point Humidity Wind Precip. Elev Updated Type
                   

Watches & Warnings

There are currently no watches in effect.